sensor_id;sensor_type;location;lat;lon;timestamp;temperature;humidity
12452;DHT22;6291;48.924;12.204;2023-01-30T00:03:48;-0.40;99.90
12452;DHT22;6291;48.924;12.204;2023-01-30T00:08:52;-0.50;99.90
12452;DHT22;6291;48.924;12.204;2023-01-30T00:13:55;-0.10;99.90
12452;DHT22;6291;48.924;12.204;2023-01-30T00:19:00;-0.50;99.90
12452;DHT22;6291;48.924;12.204;2023-01-30T00:24:04;-0.50;99.90
12452;DHT22;6291;48.924;12.204;2023-01-30T00:29:08;-0.50;99.90
12452;DHT22;6291;48.924;12.204;2023-01-30T00:34:12;-0.50;99.90
12452;DHT22;6291;48.924;12.204;2023-01-30T00:39:16;-0.50;99.90
12452;DHT22;6291;48.924;12.204;2023-01-30T00:44:19;0.10;99.90
12452;DHT22;6291;48.924;12.204;2023-01-30T00:49:44;-0.50;99.90
12452;DHT22;6291;48.924;12.204;2023-01-30T00:54:47;-0.60;99.90
12452;DHT22;6291;48.924;12.204;2023-01-30T00:59:52;2.00;99.90
12452;DHT22;6291;48.924;12.204;2023-01-30T01:04:57;0.10;99.90
12452;DHT22;6291;48.924;12.204;2023-01-30T01:10:01;-0.70;99.90
12452;DHT22;6291;48.924;12.204;2023-01-30T01:15:05;-0.70;99.90
12452;DHT22;6291;48.924;12.204;2023-01-30T01:20:10;-0.70;99.90
12452;DHT22;6291;48.924;12.204;2023-01-30T01:25:14;-0.80;99.90
12452;DHT22;6291;48.924;12.204;2023-01-30T01:30:20;-1.00;99.90
12452;DHT22;6291;48.924;12.204;2023-01-30T01:35:25;-0.90;99.90
12452;DHT22;6291;48.924;12.204;2023-01-30T01:40:28;-0.90;99.90
12452;DHT22;6291;48.924;12.204;2023-01-30T01:45:52;-0.90;99.90
12452;DHT22;6291;48.924;12.204;2023-01-30T01:51:02;-1.00;99.90
12452;DHT22;6291;48.924;12.204;2023-01-30T01:56:06;-1.20;99.90
12452;DHT22;6291;48.924;12.204;2023-01-30T02:01:10;-1.20;99.90
12452;DHT22;6291;48.924;12.204;2023-01-30T02:06:17;-1.20;99.90
12452;DHT22;6291;48.924;12.204;2023-01-30T02:11:28;1.60;99.90
12452;DHT22;6291;48.924;12.204;2023-01-30T02:16:32;2.60;99.90
12452;DHT22;6291;48.924;12.204;2023-01-30T02:27:23;2.10;99.90
12452;DHT22;6291;48.924;12.204;2023-01-30T02:32:35;0.10;99.90
12452;DHT22;6291;48.924;12.204;2023-01-30T02:37:48;-1.20;99.90
12452;DHT22;6291;48.924;12.204;2023-01-30T02:43:03;2.50;99.90
12452;DHT22;6291;48.924;12.204;2023-01-30T02:48:13;1.30;99.90
12452;DHT22;6291;48.924;12.204;2023-01-30T02:53:18;2.40;99.90
12452;DHT22;6291;48.924;12.204;2023-01-30T02:58:23;-1.20;99.90
12452;DHT22;6291;48.924;12.204;2023-01-30T03:03:42;-1.20;99.90
12452;DHT22;6291;48.924;12.204;2023-01-30T03:09:02;-1.20;99.90
12452;DHT22;6291;48.924;12.204;2023-01-30T03:14:13;2.20;99.90
12452;DHT22;6291;48.924;12.204;2023-01-30T03:19:20;-1.10;99.90
12452;DHT22;6291;48.924;12.204;2023-01-30T03:24:23;1.90;99.90
12452;DHT22;6291;48.924;12.204;2023-01-30T03:29:27;-1.10;99.90
12452;DHT22;6291;48.924;12.204;2023-01-30T03:34:32;2.70;99.90
12452;DHT22;6291;48.924;12.204;2023-01-30T03:39:35;-1.20;99.90
12452;DHT22;6291;48.924;12.204;2023-01-30T03:44:40;-1.10;99.90
12452;DHT22;6291;48.924;12.204;2023-01-30T03:49:46;-0.10;99.90
12452;DHT22;6291;48.924;12.204;2023-01-30T03:54:49;-1.00;99.90
12452;DHT22;6291;48.924;12.204;2023-01-30T03:59:52;-1.00;99.90
12452;DHT22;6291;48.924;12.204;2023-01-30T04:04:57;-1.00;99.90
12452;DHT22;6291;48.924;12.204;2023-01-30T04:10:01;-1.00;99.90
12452;DHT22;6291;48.924;12.204;2023-01-30T04:15:06;0.00;99.90
12452;DHT22;6291;48.924;12.204;2023-01-30T04:20:31;-1.00;99.90
12452;DHT22;6291;48.924;12.204;2023-01-30T04:25:34;2.20;99.90
12452;DHT22;6291;48.924;12.204;2023-01-30T04:30:41;2.30;99.90
12452;DHT22;6291;48.924;12.204;2023-01-30T04:36:12;1.00;99.90
12452;DHT22;6291;48.924;12.204;2023-01-30T04:41:18;-1.20;99.90
12452;DHT22;6291;48.924;12.204;2023-01-30T04:46:22;1.40;99.90
12452;DHT22;6291;48.924;12.204;2023-01-30T04:51:27;-1.20;99.90
12452;DHT22;6291;48.924;12.204;2023-01-30T04:56:32;0.90;99.90
12452;DHT22;6291;48.924;12.204;2023-01-30T05:01:37;-1.10;99.90
12452;DHT22;6291;48.924;12.204;2023-01-30T05:06:42;1.90;99.90
12452;DHT22;6291;48.924;12.204;2023-01-30T05:11:45;-1.10;99.90
12452;DHT22;6291;48.924;12.204;2023-01-30T05:16:49;-1.10;99.90
12452;DHT22;6291;48.924;12.204;2023-01-30T05:21:54;2.70;99.90
12452;DHT22;6291;48.924;12.204;2023-01-30T05:26:57;2.90;99.90
12452;DHT22;6291;48.924;12.204;2023-01-30T05:32:02;2.80;99.90
12452;DHT22;6291;48.924;12.204;2023-01-30T05:37:07;2.60;99.90
12452;DHT22;6291;48.924;12.204;2023-01-30T05:42:10;2.50;99.90
12452;DHT22;6291;48.924;12.204;2023-01-30T05:47:13;0.00;99.90
12452;DHT22;6291;48.924;12.204;2023-01-30T05:52:18;2.40;99.90
12452;DHT22;6291;48.924;12.204;2023-01-30T05:57:22;-0.80;99.90
12452;DHT22;6291;48.924;12.204;2023-01-30T06:02:25;2.60;99.90
12452;DHT22;6291;48.924;12.204;2023-01-30T06:07:30;1.10;99.90
12452;DHT22;6291;48.924;12.204;2023-01-30T06:12:34;2.80;99.90
12452;DHT22;6291;48.924;12.204;2023-01-30T06:17:41;1.30;99.90
12452;DHT22;6291;48.924;12.204;2023-01-30T06:22:46;2.70;99.90
12452;DHT22;6291;48.924;12.204;2023-01-30T06:27:50;1.70;99.90
12452;DHT22;6291;48.924;12.204;2023-01-30T06:32:53;-0.90;99.90
12452;DHT22;6291;48.924;12.204;2023-01-30T06:37:58;-0.80;99.90
12452;DHT22;6291;48.924;12.204;2023-01-30T06:43:01;1.90;99.90
12452;DHT22;6291;48.924;12.204;2023-01-30T06:48:05;-0.70;99.90
12452;DHT22;6291;48.924;12.204;2023-01-30T06:53:11;-0.70;99.90
12452;DHT22;6291;48.924;12.204;2023-01-30T06:58:14;2.10;99.90
12452;DHT22;6291;48.924;12.204;2023-01-30T07:03:17;1.40;99.90
12452;DHT22;6291;48.924;12.204;2023-01-30T07:08:22;2.40;99.90
12452;DHT22;6291;48.924;12.204;2023-01-30T07:13:26;2.40;99.90
12452;DHT22;6291;48.924;12.204;2023-01-30T07:18:29;2.30;99.90
12452;DHT22;6291;48.924;12.204;2023-01-30T07:23:34;2.90;99.90
12452;DHT22;6291;48.924;12.204;2023-01-30T07:28:37;2.30;99.90
12452;DHT22;6291;48.924;12.204;2023-01-30T07:33:41;3.30;99.90
12452;DHT22;6291;48.924;12.204;2023-01-30T07:38:47;-0.40;99.90
12452;DHT22;6291;48.924;12.204;2023-01-30T07:43:50;2.90;99.90
12452;DHT22;6291;48.924;12.204;2023-01-30T07:48:53;-0.40;99.90
12452;DHT22;6291;48.924;12.204;2023-01-30T07:54:02;-0.30;99.90
12452;DHT22;6291;48.924;12.204;2023-01-30T07:59:05;-0.20;99.90
12452;DHT22;6291;48.924;12.204;2023-01-30T08:04:09;3.20;99.90
12452;DHT22;6291;48.924;12.204;2023-01-30T08:09:14;1.90;99.90
12452;DHT22;6291;48.924;12.204;2023-01-30T08:14:18;2.50;99.90
12452;DHT22;6291;48.924;12.204;2023-01-30T08:19:21;3.50;99.90
12452;DHT22;6291;48.924;12.204;2023-01-30T08:24:26;2.40;99.90
12452;DHT22;6291;48.924;12.204;2023-01-30T08:29:29;3.20;99.90
12452;DHT22;6291;48.924;12.204;2023-01-30T08:34:32;-2.50;99.90
12452;DHT22;6291;48.924;12.204;2023-01-30T08:39:38;0.30;99.90
12452;DHT22;6291;48.924;12.204;2023-01-30T08:44:41;1.40;99.90
12452;DHT22;6291;48.924;12.204;2023-01-30T08:49:45;1.80;99.90
12452;DHT22;6291;48.924;12.204;2023-01-30T08:54:51;3.30;99.90
12452;DHT22;6291;48.924;12.204;2023-01-30T08:59:55;2.80;99.90
12452;DHT22;6291;48.924;12.204;2023-01-30T09:04:58;1.00;99.90
12452;DHT22;6291;48.924;12.204;2023-01-30T09:10:03;3.30;99.90
12452;DHT22;6291;48.924;12.204;2023-01-30T09:15:08;0.90;99.90
12452;DHT22;6291;48.924;12.204;2023-01-30T09:20:12;0.80;99.90
12452;DHT22;6291;48.924;12.204;2023-01-30T09:25:17;2.50;99.90
12452;DHT22;6291;48.924;12.204;2023-01-30T09:30:21;2.30;99.90
12452;DHT22;6291;48.924;12.204;2023-01-30T09:35:24;1.30;99.90
12452;DHT22;6291;48.924;12.204;2023-01-30T09:40:31;1.40;99.90
12452;DHT22;6291;48.924;12.204;2023-01-30T09:45:58;2.10;99.90
12452;DHT22;6291;48.924;12.204;2023-01-30T09:51:28;1.80;99.90
12452;DHT22;6291;48.924;12.204;2023-01-30T09:56:36;3.00;99.90
12452;DHT22;6291;48.924;12.204;2023-01-30T10:01:45;2.90;99.90
12452;DHT22;6291;48.924;12.204;2023-01-30T10:06:58;1.80;99.90
12452;DHT22;6291;48.924;12.204;2023-01-30T10:12:20;1.80;99.90
12452;DHT22;6291;48.924;12.204;2023-01-30T10:17:33;2.10;99.90
12452;DHT22;6291;48.924;12.204;2023-01-30T10:22:47;2.40;99.90
12452;DHT22;6291;48.924;12.204;2023-01-30T10:27:58;3.40;99.90
12452;DHT22;6291;48.924;12.204;2023-01-30T10:33:06;2.10;99.90
12452;DHT22;6291;48.924;12.204;2023-01-30T10:38:16;1.40;99.90
12452;DHT22;6291;48.924;12.204;2023-01-30T10:43:26;1.30;99.90
12452;DHT22;6291;48.924;12.204;2023-01-30T10:48:48;2.40;99.90
12452;DHT22;6291;48.924;12.204;2023-01-30T10:53:58;2.80;99.90
12452;DHT22;6291;48.924;12.204;2023-01-30T10:59:15;2.90;99.90
12452;DHT22;6291;48.924;12.204;2023-01-30T11:04:28;3.80;99.90
12452;DHT22;6291;48.924;12.204;2023-01-30T11:09:40;1.70;99.90
12452;DHT22;6291;48.924;12.204;2023-01-30T11:14:55;3.00;99.90
12452;DHT22;6291;48.924;12.204;2023-01-30T11:20:05;2.60;99.90
12452;DHT22;6291;48.924;12.204;2023-01-30T11:25:14;2.10;99.90
12452;DHT22;6291;48.924;12.204;2023-01-30T11:30:22;2.90;99.90
12452;DHT22;6291;48.924;12.204;2023-01-30T11:35:29;2.00;99.90
12452;DHT22;6291;48.924;12.204;2023-01-30T11:40:37;2.70;99.90
12452;DHT22;6291;48.924;12.204;2023-01-30T11:45:44;4.50;99.90
12452;DHT22;6291;48.924;12.204;2023-01-30T11:50:49;3.40;99.90
12452;DHT22;6291;48.924;12.204;2023-01-30T11:55:59;2.60;99.90
12452;DHT22;6291;48.924;12.204;2023-01-30T12:01:12;3.20;99.90
12452;DHT22;6291;48.924;12.204;2023-01-30T12:06:22;2.00;99.90
12452;DHT22;6291;48.924;12.204;2023-01-30T12:11:29;1.90;99.90
12452;DHT22;6291;48.924;12.204;2023-01-30T12:16:45;2.60;99.90
12452;DHT22;6291;48.924;12.204;2023-01-30T12:21:58;2.70;1.00
12452;DHT22;6291;48.924;12.204;2023-01-30T12:27:08;3.20;99.90
12452;DHT22;6291;48.924;12.204;2023-01-30T12:32:16;3.10;99.90
12452;DHT22;6291;48.924;12.204;2023-01-30T12:37:35;1.40;1.00
12452;DHT22;6291;48.924;12.204;2023-01-30T12:43:01;1.40;1.00
12452;DHT22;6291;48.924;12.204;2023-01-30T12:48:36;3.60;1.00
12452;DHT22;6291;48.924;12.204;2023-01-30T12:53:59;1.40;1.00
12452;DHT22;6291;48.924;12.204;2023-01-30T12:59:11;2.80;99.90
12452;DHT22;6291;48.924;12.204;2023-01-30T13:04:26;2.30;99.90
12452;DHT22;6291;48.924;12.204;2023-01-30T13:09:47;1.20;99.90
12452;DHT22;6291;48.924;12.204;2023-01-30T13:14:55;1.20;99.90
12452;DHT22;6291;48.924;12.204;2023-01-30T13:20:12;1.20;99.90
12452;DHT22;6291;48.924;12.204;2023-01-30T13:25:25;2.80;99.90
12452;DHT22;6291;48.924;12.204;2023-01-30T13:30:30;2.40;99.90
12452;DHT22;6291;48.924;12.204;2023-01-30T13:35:48;1.20;99.90
12452;DHT22;6291;48.924;12.204;2023-01-30T13:40:55;1.20;99.90
12452;DHT22;6291;48.924;12.204;2023-01-30T13:46:01;2.30;99.90
12452;DHT22;6291;48.924;12.204;2023-01-30T13:51:31;1.20;99.90
12452;DHT22;6291;48.924;12.204;2023-01-30T13:56:42;1.30;99.90
12452;DHT22;6291;48.924;12.204;2023-01-30T14:02:07;1.40;99.90
12452;DHT22;6291;48.924;12.204;2023-01-30T14:07:17;1.60;99.90
12452;DHT22;6291;48.924;12.204;2023-01-30T14:12:24;3.60;99.90
12452;DHT22;6291;48.924;12.204;2023-01-30T14:17:30;1.80;99.90
12452;DHT22;6291;48.924;12.204;2023-01-30T14:22:38;2.20;99.90
12452;DHT22;6291;48.924;12.204;2023-01-30T14:27:43;1.90;99.90
12452;DHT22;6291;48.924;12.204;2023-01-30T14:32:52;1.90;99.90
12452;DHT22;6291;48.924;12.204;2023-01-30T14:38:12;2.80;99.90
12452;DHT22;6291;48.924;12.204;2023-01-30T14:49:02;1.80;99.90
12452;DHT22;6291;48.924;12.204;2023-01-30T14:54:20;2.50;99.90
12452;DHT22;6291;48.924;12.204;2023-01-30T14:59:48;1.80;99.90
12452;DHT22;6291;48.924;12.204;2023-01-30T15:05:12;1.80;99.90
12452;DHT22;6291;48.924;12.204;2023-01-30T15:10:31;1.80;99.90
12452;DHT22;6291;48.924;12.204;2023-01-30T15:15:45;3.30;99.90
12452;DHT22;6291;48.924;12.204;2023-01-30T15:21:16;2.30;99.90
12452;DHT22;6291;48.924;12.204;2023-01-30T15:26:34;1.90;99.90
12452;DHT22;6291;48.924;12.204;2023-01-30T15:31:52;3.00;99.90
12452;DHT22;6291;48.924;12.204;2023-01-30T15:36:56;2.00;99.90
12452;DHT22;6291;48.924;12.204;2023-01-30T15:42:05;2.20;99.90
12452;DHT22;6291;48.924;12.204;2023-01-30T15:47:20;2.00;99.90
12452;DHT22;6291;48.924;12.204;2023-01-30T15:52:35;2.00;99.90
12452;DHT22;6291;48.924;12.204;2023-01-30T15:57:47;2.10;99.90
12452;DHT22;6291;48.924;12.204;2023-01-30T16:02:51;2.10;99.90
12452;DHT22;6291;48.924;12.204;2023-01-30T16:07:55;2.10;99.90
12452;DHT22;6291;48.924;12.204;2023-01-30T16:13:02;2.10;99.90
12452;DHT22;6291;48.924;12.204;2023-01-30T16:18:15;4.80;99.90
12452;DHT22;6291;48.924;12.204;2023-01-30T16:23:23;3.10;99.90
12452;DHT22;6291;48.924;12.204;2023-01-30T16:28:31;2.00;99.90
12452;DHT22;6291;48.924;12.204;2023-01-30T16:33:34;2.80;99.90
12452;DHT22;6291;48.924;12.204;2023-01-30T16:38:42;3.50;99.90
12452;DHT22;6291;48.924;12.204;2023-01-30T16:44:18;3.40;99.90
12452;DHT22;6291;48.924;12.204;2023-01-30T16:49:24;2.00;99.90
12452;DHT22;6291;48.924;12.204;2023-01-30T16:54:30;3.10;99.90
12452;DHT22;6291;48.924;12.204;2023-01-30T16:59:36;2.10;99.90
12452;DHT22;6291;48.924;12.204;2023-01-30T17:04:40;2.10;99.90
12452;DHT22;6291;48.924;12.204;2023-01-30T17:09:44;2.10;99.90
12452;DHT22;6291;48.924;12.204;2023-01-30T17:14:49;3.20;99.90
12452;DHT22;6291;48.924;12.204;2023-01-30T17:19:53;2.20;99.90
12452;DHT22;6291;48.924;12.204;2023-01-30T17:25:00;2.90;99.90
12452;DHT22;6291;48.924;12.204;2023-01-30T17:30:12;2.30;99.90
12452;DHT22;6291;48.924;12.204;2023-01-30T17:35:15;2.20;99.90
12452;DHT22;6291;48.924;12.204;2023-01-30T17:40:26;2.00;99.90
12452;DHT22;6291;48.924;12.204;2023-01-30T17:45:32;2.40;99.90
12452;DHT22;6291;48.924;12.204;2023-01-30T17:50:35;2.50;99.90
12452;DHT22;6291;48.924;12.204;2023-01-30T17:55:39;2.40;99.90
12452;DHT22;6291;48.924;12.204;2023-01-30T18:00:44;2.40;99.90
12452;DHT22;6291;48.924;12.204;2023-01-30T18:05:47;2.40;98.50
12452;DHT22;6291;48.924;12.204;2023-01-30T18:10:51;2.40;87.30
12452;DHT22;6291;48.924;12.204;2023-01-30T18:15:57;2.80;53.50
12452;DHT22;6291;48.924;12.204;2023-01-30T18:21:01;3.00;56.60
12452;DHT22;6291;48.924;12.204;2023-01-30T18:26:05;2.50;47.20
12452;DHT22;6291;48.924;12.204;2023-01-30T18:31:10;2.50;54.50
12452;DHT22;6291;48.924;12.204;2023-01-30T18:36:16;3.60;34.60
12452;DHT22;6291;48.924;12.204;2023-01-30T18:41:21;2.50;1.00
12452;DHT22;6291;48.924;12.204;2023-01-30T18:46:27;2.60;1.00
12452;DHT22;6291;48.924;12.204;2023-01-30T18:51:31;2.60;1.00
12452;DHT22;6291;48.924;12.204;2023-01-30T18:56:35;4.30;1.00
12452;DHT22;6291;48.924;12.204;2023-01-30T19:01:41;2.60;1.00
12452;DHT22;6291;48.924;12.204;2023-01-30T19:06:48;2.60;1.00
12452;DHT22;6291;48.924;12.204;2023-01-30T19:11:51;3.10;1.00
12452;DHT22;6291;48.924;12.204;2023-01-30T19:17:13;2.60;1.00
12452;DHT22;6291;48.924;12.204;2023-01-30T19:22:18;2.60;1.00
12452;DHT22;6291;48.924;12.204;2023-01-30T19:27:22;2.70;1.00
12452;DHT22;6291;48.924;12.204;2023-01-30T19:32:28;2.60;1.00
12452;DHT22;6291;48.924;12.204;2023-01-30T19:37:31;2.70;1.00
12452;DHT22;6291;48.924;12.204;2023-01-30T19:42:35;2.70;1.00
12452;DHT22;6291;48.924;12.204;2023-01-30T19:47:46;4.00;1.00
12452;DHT22;6291;48.924;12.204;2023-01-30T19:52:51;2.50;1.00
12452;DHT22;6291;48.924;12.204;2023-01-30T19:57:55;2.70;1.00
12452;DHT22;6291;48.924;12.204;2023-01-30T20:03:01;2.60;1.00
12452;DHT22;6291;48.924;12.204;2023-01-30T20:08:05;2.60;1.00
12452;DHT22;6291;48.924;12.204;2023-01-30T20:13:08;1.90;1.00
12452;DHT22;6291;48.924;12.204;2023-01-30T20:18:13;2.70;1.00
12452;DHT22;6291;48.924;12.204;2023-01-30T20:23:17;2.70;1.00
12452;DHT22;6291;48.924;12.204;2023-01-30T20:28:20;3.10;1.00
12452;DHT22;6291;48.924;12.204;2023-01-30T20:33:25;2.70;1.00
12452;DHT22;6291;48.924;12.204;2023-01-30T20:38:30;2.70;1.00
12452;DHT22;6291;48.924;12.204;2023-01-30T20:43:35;3.00;1.00
12452;DHT22;6291;48.924;12.204;2023-01-30T20:48:41;2.90;1.00
12452;DHT22;6291;48.924;12.204;2023-01-30T20:53:47;2.80;1.00
12452;DHT22;6291;48.924;12.204;2023-01-30T20:58:51;2.80;1.00
12452;DHT22;6291;48.924;12.204;2023-01-30T21:03:57;2.80;99.90
12452;DHT22;6291;48.924;12.204;2023-01-30T21:09:02;2.80;99.90
12452;DHT22;6291;48.924;12.204;2023-01-30T21:14:06;2.90;99.90
12452;DHT22;6291;48.924;12.204;2023-01-30T21:19:12;2.90;1.00
12452;DHT22;6291;48.924;12.204;2023-01-30T21:24:19;2.90;99.90
12452;DHT22;6291;48.924;12.204;2023-01-30T21:29:26;2.90;99.90
12452;DHT22;6291;48.924;12.204;2023-01-30T21:34:32;3.40;4.50
12452;DHT22;6291;48.924;12.204;2023-01-30T21:39:36;2.90;1.00
12452;DHT22;6291;48.924;12.204;2023-01-30T21:44:57;2.90;1.00
12452;DHT22;6291;48.924;12.204;2023-01-30T21:50:04;3.00;1.00
12452;DHT22;6291;48.924;12.204;2023-01-30T21:55:08;3.00;1.00
12452;DHT22;6291;48.924;12.204;2023-01-30T22:00:13;3.00;1.00
12452;DHT22;6291;48.924;12.204;2023-01-30T22:05:18;3.00;1.00
12452;DHT22;6291;48.924;12.204;2023-01-30T22:10:22;3.00;1.00
12452;DHT22;6291;48.924;12.204;2023-01-30T22:15:25;3.10;1.00
12452;DHT22;6291;48.924;12.204;2023-01-30T22:20:30;3.10;1.00
12452;DHT22;6291;48.924;12.204;2023-01-30T22:25:34;3.10;1.00
12452;DHT22;6291;48.924;12.204;2023-01-30T22:30:37;3.10;1.00
12452;DHT22;6291;48.924;12.204;2023-01-30T22:35:49;3.10;1.00
12452;DHT22;6291;48.924;12.204;2023-01-30T22:40:59;3.20;1.00
12452;DHT22;6291;48.924;12.204;2023-01-30T22:46:06;3.10;1.00
12452;DHT22;6291;48.924;12.204;2023-01-30T22:51:14;3.10;1.00
12452;DHT22;6291;48.924;12.204;2023-01-30T22:56:18;3.10;1.00
12452;DHT22;6291;48.924;12.204;2023-01-30T23:01:23;3.00;1.00
12452;DHT22;6291;48.924;12.204;2023-01-30T23:06:29;3.00;1.00
12452;DHT22;6291;48.924;12.204;2023-01-30T23:11:34;5.90;1.00
12452;DHT22;6291;48.924;12.204;2023-01-30T23:16:39;3.00;1.00
12452;DHT22;6291;48.924;12.204;2023-01-30T23:21:45;3.00;1.00
12452;DHT22;6291;48.924;12.204;2023-01-30T23:26:50;3.00;1.00
12452;DHT22;6291;48.924;12.204;2023-01-30T23:31:53;3.00;1.00
12452;DHT22;6291;48.924;12.204;2023-01-30T23:36:58;6.50;1.00
12452;DHT22;6291;48.924;12.204;2023-01-30T23:42:01;5.30;1.00
12452;DHT22;6291;48.924;12.204;2023-01-30T23:47:04;3.10;1.00
12452;DHT22;6291;48.924;12.204;2023-01-30T23:52:09;3.10;1.00
12452;DHT22;6291;48.924;12.204;2023-01-30T23:57:14;3.80;1.00
